Time;durP1;ratioP1;P1;durP2;ratioP2;P2;SDS_P1;SDS_P2;PMS_P1;PMS_P2;Temp;Humidity;BMP_temperature;BMP_pressure;BME280_temperature;BME280_humidity;BME280_pressure;Samples;Min_cycle;Max_cycle;Signal;HPM_P1;HPM_P2
2022/08/19 00:00:06;;;;;;;24.47;19.33;;;;;;;21.12;100.00;98652.97;5020348;28;20283;-79
2022/08/19 00:02:37;;;;;;;23.13;18.73;;;;;;;21.30;100.00;98657.28;5020276;28;20205;-79
2022/08/19 00:05:20;;;;;;;23.60;18.50;;;;;;;21.30;100.00;98660.81;4996669;28;20273;-79
2022/08/19 00:07:50;;;;;;;24.45;18.52;;;;;;;21.26;100.00;98658.63;5030604;28;20216;-79
2022/08/19 00:10:21;;;;;;;23.87;18.87;;;;;;;21.20;100.00;98670.94;5044632;28;20380;-79
2022/08/19 00:12:50;;;;;;;22.53;18.27;;;;;;;21.31;100.00;98673.25;5038877;28;20201;-79
2022/08/19 00:15:22;;;;;;;23.57;18.73;;;;;;;21.22;100.00;98671.59;5069428;27;20284;-78
2022/08/19 00:17:55;;;;;;;20.93;18.57;;;;;;;21.12;100.00;98662.91;5085697;28;20299;-79
2022/08/19 00:20:27;;;;;;;23.70;19.47;;;;;;;21.14;100.00;98660.91;5078313;28;20227;-79
2022/08/19 00:22:55;;;;;;;25.33;18.13;;;;;;;21.21;100.00;98658.31;5023263;28;20293;-79
2022/08/19 00:25:24;;;;;;;21.87;18.57;;;;;;;21.06;100.00;98652.88;5017544;28;20289;-79
2022/08/19 00:27:58;;;;;;;21.50;17.30;;;;;;;21.18;100.00;98647.91;5004783;28;20229;-79
2022/08/19 00:30:27;;;;;;;24.57;18.53;;;;;;;21.15;100.00;98647.25;5001886;28;20277;-79
2022/08/19 00:32:58;;;;;;;22.10;18.27;;;;;;;21.18;100.00;98656.00;5001023;28;20209;-80
2022/08/19 00:35:28;;;;;;;24.40;19.07;;;;;;;21.18;100.00;98650.59;5007224;28;20201;-79
2022/08/19 00:37:57;;;;;;;22.97;18.57;;;;;;;21.13;100.00;98651.13;5032201;28;20204;-79
2022/08/19 00:40:26;;;;;;;21.50;18.53;;;;;;;21.12;100.00;98652.13;4998336;28;20229;-79
2022/08/19 00:42:56;;;;;;;22.37;18.43;;;;;;;21.08;100.00;98648.97;4949702;28;20720;-79
2022/08/19 00:45:30;;;;;;;23.30;18.70;;;;;;;21.05;100.00;98643.94;4944624;28;20327;-78
2022/08/19 00:48:06;;;;;;;23.73;18.90;;;;;;;20.92;100.00;98638.28;4967744;28;20233;-80
2022/08/19 00:50:44;;;;;;;22.30;18.23;;;;;;;20.94;100.00;98638.09;5004454;28;20190;-80
2022/08/19 00:53:23;;;;;;;19.87;17.63;;;;;;;20.81;100.00;98636.84;5005306;28;20280;-80
2022/08/19 00:55:56;;;;;;;24.03;18.90;;;;;;;20.81;100.00;98634.13;4996819;28;20260;-79
2022/08/19 00:58:30;;;;;;;24.10;18.87;;;;;;;20.83;100.00;98632.09;5011783;28;20283;-79
2022/08/19 01:00:58;;;;;;;24.00;18.63;;;;;;;20.75;100.00;98631.31;5035340;28;20193;-80
2022/08/19 01:03:29;;;;;;;22.97;17.83;;;;;;;20.84;100.00;98636.50;5038439;28;20208;-79
2022/08/19 01:06:18;;;;;;;23.00;18.37;;;;;;;20.91;100.00;98633.09;5045043;28;20283;-79
2022/08/19 01:08:48;;;;;;;21.63;18.07;;;;;;;20.85;100.00;98629.25;5083507;28;20245;-79
2022/08/19 01:11:18;;;;;;;23.07;18.73;;;;;;;20.91;100.00;98638.47;5084013;28;20195;-81
2022/08/19 01:13:47;;;;;;;21.23;18.50;;;;;;;20.83;100.00;98631.25;5087315;28;20688;-79
2022/08/19 01:16:19;;;;;;;22.27;18.17;;;;;;;20.73;100.00;98625.25;5084734;28;20299;-79
2022/08/19 01:18:51;;;;;;;21.23;18.10;;;;;;;20.68;100.00;98617.72;5088303;28;20218;-79
2022/08/19 01:21:28;;;;;;;21.47;18.27;;;;;;;20.76;100.00;98614.16;5084658;28;20274;-79
2022/08/19 01:23:59;;;;;;;21.80;17.13;;;;;;;20.76;100.00;98596.16;5084456;28;20210;-79
2022/08/19 01:26:29;;;;;;;19.77;17.27;;;;;;;20.70;100.00;98598.72;5087674;28;20287;-80
2022/08/19 01:29:00;;;;;;;19.93;16.93;;;;;;;20.67;100.00;98597.22;5085263;28;20535;-79
2022/08/19 01:31:33;;;;;;;19.17;16.57;;;;;;;20.63;100.00;98598.56;5082503;28;20226;-79
2022/08/19 01:34:03;;;;;;;18.97;16.17;;;;;;;20.70;100.00;98610.31;5083974;28;20212;-80
2022/08/19 01:36:34;;;;;;;21.43;15.90;;;;;;;20.72;100.00;98616.34;5090859;28;20199;-80
2022/08/19 01:39:17;;;;;;;20.97;16.53;;;;;;;20.76;100.00;98608.78;5089002;28;20192;-79
2022/08/19 01:41:47;;;;;;;20.07;15.83;;;;;;;20.75;100.00;98607.94;5097659;27;20297;-80
2022/08/19 01:44:16;;;;;;;19.67;16.27;;;;;;;20.67;100.00;98604.47;5096651;27;20245;-79
2022/08/19 01:46:48;;;;;;;20.37;16.63;;;;;;;20.65;100.00;98606.47;5123612;27;20632;-79
2022/08/19 01:49:18;;;;;;;19.90;15.80;;;;;;;20.73;100.00;98596.50;5122947;27;20230;-79
2022/08/19 01:51:49;;;;;;;18.47;15.63;;;;;;;20.55;100.00;98591.38;5126716;27;20229;-79
2022/08/19 01:54:20;;;;;;;19.73;16.07;;;;;;;20.49;100.00;98599.31;5124601;27;20202;-79
2022/08/19 01:56:58;;;;;;;19.53;16.33;;;;;;;20.54;100.00;98605.00;5132003;27;20209;-79
2022/08/19 01:59:27;;;;;;;18.93;15.50;;;;;;;20.48;100.00;98609.25;5122945;27;20289;-79
2022/08/19 02:01:57;;;;;;;18.17;15.70;;;;;;;20.48;100.00;98611.94;5124151;27;20221;-79
2022/08/19 02:04:27;;;;;;;19.80;15.97;;;;;;;20.47;100.00;98612.97;5131776;27;20186;-79
2022/08/19 02:06:55;;;;;;;17.50;15.53;;;;;;;20.49;100.00;98616.31;5127690;27;20632;-79
2022/08/19 02:09:26;;;;;;;19.77;16.33;;;;;;;20.51;100.00;98627.72;5122993;27;20239;-79
2022/08/19 02:11:54;;;;;;;16.90;15.10;;;;;;;20.49;100.00;98620.84;5121255;27;20272;-80
2022/08/19 02:14:23;;;;;;;17.63;14.70;;;;;;;20.32;100.00;98621.88;5127985;27;20382;-80
2022/08/19 02:16:51;;;;;;;20.23;15.20;;;;;;;20.27;100.00;98619.72;5121293;27;20202;-79
2022/08/19 02:19:20;;;;;;;18.57;16.27;;;;;;;20.41;100.00;98624.38;5126067;27;20226;-79
2022/08/19 02:21:48;;;;;;;19.57;16.93;;;;;;;20.41;100.00;98628.91;5120673;27;20285;-79
2022/08/19 02:24:17;;;;;;;25.67;20.67;;;;;;;20.39;100.00;98620.19;5123026;27;20220;-79
2022/08/19 02:26:47;;;;;;;22.90;18.90;;;;;;;20.36;100.00;98615.13;5128313;27;20214;-79
2022/08/19 02:29:15;;;;;;;16.93;13.47;;;;;;;20.39;100.00;98612.13;5128404;27;20229;-79
2022/08/19 02:31:44;;;;;;;19.77;14.23;;;;;;;20.11;100.00;98609.00;5127837;27;20235;-79
2022/08/19 02:34:12;;;;;;;18.17;14.60;;;;;;;19.97;100.00;98613.22;5107354;27;20273;-79
2022/08/19 02:36:41;;;;;;;15.57;12.97;;;;;;;19.97;100.00;98611.38;5125765;27;20274;-79
2022/08/19 02:39:09;;;;;;;15.13;12.47;;;;;;;20.06;100.00;98616.75;5128344;27;20220;-79
2022/08/19 02:41:37;;;;;;;16.17;14.47;;;;;;;20.04;100.00;98624.97;5122207;27;20198;-79
2022/08/19 02:44:08;;;;;;;14.23;11.97;;;;;;;20.12;100.00;98629.50;5121398;27;20269;-79
2022/08/19 02:46:57;;;;;;;15.27;11.80;;;;;;;20.25;100.00;98644.06;5130377;27;20633;-81
2022/08/19 02:49:26;;;;;;;14.83;11.97;;;;;;;20.21;100.00;98648.13;5127941;27;20230;-79
2022/08/19 02:51:54;;;;;;;13.67;12.17;;;;;;;20.21;100.00;98648.13;5124134;27;20217;-81
2022/08/19 02:54:23;;;;;;;15.90;13.70;;;;;;;20.22;100.00;98649.81;5121788;27;20237;-79
2022/08/19 02:56:51;;;;;;;14.10;12.63;;;;;;;20.32;100.00;98656.84;5124181;27;20258;-79
2022/08/19 02:59:22;;;;;;;14.57;13.07;;;;;;;20.20;100.00;98661.75;5126757;27;20266;-80
2022/08/19 03:01:50;;;;;;;15.67;13.27;;;;;;;20.36;100.00;98659.00;5125554;27;20275;-80
2022/08/19 03:04:20;;;;;;;17.83;13.30;;;;;;;20.19;100.00;98650.16;5046719;28;20262;-79
2022/08/19 03:06:49;;;;;;;13.97;12.47;;;;;;;20.33;100.00;98648.59;5023879;28;20259;-80
2022/08/19 03:09:19;;;;;;;16.07;12.23;;;;;;;20.33;100.00;98650.47;5023178;28;20229;-80
2022/08/19 03:11:48;;;;;;;13.33;11.57;;;;;;;20.35;100.00;98651.94;5023025;28;20264;-80
2022/08/19 03:14:22;;;;;;;13.40;11.60;;;;;;;20.35;100.00;98657.34;5025055;28;20403;-80
2022/08/19 03:16:53;;;;;;;14.33;12.73;;;;;;;20.35;100.00;98654.63;5022478;28;20212;-80
2022/08/19 03:19:22;;;;;;;15.20;12.33;;;;;;;20.18;100.00;98661.94;5020843;28;20220;-80
2022/08/19 03:21:52;;;;;;;14.03;11.63;;;;;;;20.10;100.00;98661.94;5029045;28;20680;-80
2022/08/19 03:24:21;;;;;;;14.60;12.40;;;;;;;20.14;100.00;98667.81;5060302;28;20223;-80
2022/08/19 03:26:53;;;;;;;13.57;12.17;;;;;;;20.09;100.00;98668.34;5062190;28;20359;-79
2022/08/19 03:29:23;;;;;;;13.07;11.07;;;;;;;20.19;100.00;98655.53;5066604;28;20323;-80
2022/08/19 03:32:00;;;;;;;13.93;12.27;;;;;;;20.25;100.00;98662.91;5108422;27;20182;-80
2022/08/19 03:34:33;;;;;;;16.97;12.33;;;;;;;20.21;100.00;98664.28;5126001;27;20262;-80
2022/08/19 03:37:06;;;;;;;13.07;11.77;;;;;;;20.32;100.00;98670.31;5127133;27;20187;-80
2022/08/19 03:39:37;;;;;;;13.30;11.90;;;;;;;20.32;100.00;98667.59;5122886;27;20274;-79
2022/08/19 03:42:07;;;;;;;13.53;12.13;;;;;;;20.32;100.00;98670.31;5123638;27;20298;-79
2022/08/19 03:44:57;;;;;;;15.27;12.03;;;;;;;20.26;100.00;98667.28;5044757;28;20251;-79
2022/08/19 03:47:26;;;;;;;16.37;12.17;;;;;;;20.17;100.00;98672.84;5044264;28;20320;-80
2022/08/19 03:49:55;;;;;;;17.33;12.37;;;;;;;20.09;100.00;98670.19;5040513;28;20228;-79
2022/08/19 03:52:26;;;;;;;17.17;12.50;;;;;;;20.06;100.00;98673.19;5038729;28;20201;-80
2022/08/19 03:54:55;;;;;;;15.23;11.53;;;;;;;20.14;100.00;98678.56;5038083;28;20220;-80
2022/08/19 03:57:23;;;;;;;13.43;11.90;;;;;;;19.95;100.00;98671.72;5046170;28;20217;-79
2022/08/19 04:00:00;;;;;;;15.67;12.47;;;;;;;20.01;100.00;98677.25;5045921;28;20220;-80
2022/08/19 04:02:41;;;;;;;13.60;12.00;;;;;;;20.08;100.00;98673.91;5043420;28;20259;-79
2022/08/19 04:05:29;;;;;;;15.60;11.70;;;;;;;20.01;100.00;98671.88;5045823;28;20193;-80
2022/08/19 04:07:58;;;;;;;13.60;11.70;;;;;;;20.05;100.00;98674.22;5040409;28;20233;-80
2022/08/19 04:10:28;;;;;;;13.07;11.40;;;;;;;20.07;100.00;98672.19;5120541;27;20229;-79
2022/08/19 04:12:57;;;;;;;14.63;12.53;;;;;;;20.09;100.00;98676.41;5127509;27;20261;-79
2022/08/19 04:15:28;;;;;;;15.50;12.70;;;;;;;20.10;100.00;98686.16;5118247;27;20206;-80
2022/08/19 04:17:56;;;;;;;14.03;11.60;;;;;;;19.95;100.00;98682.47;5118208;27;20258;-80
2022/08/19 04:20:25;;;;;;;15.40;12.17;;;;;;;19.99;100.00;98687.34;5121788;27;20190;-80
2022/08/19 04:22:54;;;;;;;15.97;11.67;;;;;;;20.06;100.00;98684.78;5124849;27;20286;-79
2022/08/19 04:25:22;;;;;;;15.40;11.50;;;;;;;20.05;100.00;98688.50;5129120;27;20225;-80
2022/08/19 04:27:52;;;;;;;13.83;11.77;;;;;;;19.96;100.00;98673.38;5126727;27;20265;-80
2022/08/19 04:30:22;;;;;;;14.57;12.57;;;;;;;19.89;100.00;98678.63;5121802;27;20226;-80
2022/08/19 04:32:52;;;;;;;17.90;12.97;;;;;;;19.90;100.00;98684.84;5123416;27;20225;-80
2022/08/19 04:35:20;;;;;;;13.57;11.77;;;;;;;19.77;100.00;98687.16;5124997;27;20193;-80
2022/08/19 04:37:51;;;;;;;13.90;12.03;;;;;;;19.93;100.00;98693.38;5126120;27;20191;-80
2022/08/19 04:43:06;;;;;;;14.03;10.90;;;;;;;19.96;100.00;98690.34;5129232;27;20218;-80
2022/08/19 04:45:34;;;;;;;14.30;11.07;;;;;;;20.01;100.00;98690.69;5123223;27;20341;-80
2022/08/19 04:48:13;;;;;;;16.53;12.17;;;;;;;19.85;100.00;98682.63;5129443;27;20201;-80
2022/08/19 04:50:58;;;;;;;14.60;11.40;;;;;;;19.83;100.00;98687.34;5123265;27;20245;-80
2022/08/19 04:53:31;;;;;;;15.13;11.63;;;;;;;19.87;100.00;98698.59;5124976;28;20216;-80
2022/08/19 04:56:07;;;;;;;14.83;11.30;;;;;;;19.93;100.00;98700.63;5123776;28;20206;-80
2022/08/19 04:58:37;;;;;;;17.10;12.30;;;;;;;20.07;100.00;98691.00;5125051;28;20273;-80
2022/08/19 05:01:10;;;;;;;14.73;12.03;;;;;;;19.96;100.00;98703.78;5123094;28;20201;-80
2022/08/19 05:03:40;;;;;;;12.67;11.37;;;;;;;20.04;100.00;98702.13;5121698;28;20277;-80
2022/08/19 05:06:11;;;;;;;14.27;11.97;;;;;;;20.02;100.00;98695.06;5126055;27;20226;-80
2022/08/19 05:08:43;;;;;;;14.13;11.43;;;;;;;20.14;100.00;98700.91;5129836;27;20224;-80
2022/08/19 05:11:15;;;;;;;14.00;12.57;;;;;;;20.11;100.00;98695.06;5132739;27;20334;-80
2022/08/19 05:13:44;;;;;;;13.63;11.67;;;;;;;20.16;100.00;98695.38;5125561;27;20601;-80
2022/08/19 05:16:14;;;;;;;15.80;12.20;;;;;;;20.18;100.00;98701.44;5128551;27;20228;-80
2022/08/19 05:24:21;;;;;;;14.03;12.17;;;;;;;20.14;100.00;98690.16;5098283;27;20237;-79
2022/08/19 05:26:57;;;;;;;16.23;12.17;;;;;;;20.15;100.00;98694.53;5123749;27;20210;-79
2022/08/19 05:29:28;;;;;;;18.80;12.23;;;;;;;20.17;100.00;98687.16;5125124;27;20194;-79
2022/08/19 05:32:10;;;;;;;14.17;11.73;;;;;;;20.34;100.00;98690.63;5046991;28;20272;-79
2022/08/19 05:34:40;;;;;;;14.37;12.13;;;;;;;20.14;100.00;98687.47;5049664;28;20212;-80
2022/08/19 05:37:10;;;;;;;15.50;12.50;;;;;;;20.13;100.00;98693.03;5046040;28;20209;-79
2022/08/19 05:39:40;;;;;;;15.03;12.30;;;;;;;20.05;100.00;98691.19;5043837;28;20228;-79
2022/08/19 05:42:11;;;;;;;14.47;12.23;;;;;;;20.04;100.00;98700.25;5038214;28;20293;-80
2022/08/19 05:44:43;;;;;;;14.00;12.07;;;;;;;20.00;100.00;98696.25;5041463;28;20189;-79
2022/08/19 05:47:14;;;;;;;15.50;11.97;;;;;;;20.11;100.00;98695.06;5042337;28;20211;-79
2022/08/19 05:49:45;;;;;;;13.90;11.77;;;;;;;20.09;100.00;98697.09;5075512;27;20289;-79
2022/08/19 05:52:16;;;;;;;15.03;12.23;;;;;;;20.19;100.00;98697.75;5068310;28;20192;-79
2022/08/19 05:54:47;;;;;;;15.37;12.07;;;;;;;20.36;100.00;98687.75;5065850;28;20216;-80
2022/08/19 05:57:21;;;;;;;13.50;11.27;;;;;;;20.41;100.00;98694.31;5065130;28;20265;-79
2022/08/19 05:59:53;;;;;;;14.47;10.70;;;;;;;20.46;100.00;98692.00;5059191;28;20717;-79
2022/08/19 06:02:27;;;;;;;17.70;11.63;;;;;;;20.58;100.00;98708.59;5066319;28;20216;-79
2022/08/19 06:04:59;;;;;;;13.20;10.90;;;;;;;20.66;100.00;98697.81;5067979;28;20204;-80
2022/08/19 06:07:28;;;;;;;12.27;10.87;;;;;;;20.68;100.00;98706.56;5062713;28;20204;-79
2022/08/19 06:09:57;;;;;;;13.37;11.07;;;;;;;20.73;100.00;98706.00;5083189;27;20198;-80
2022/08/19 06:12:31;;;;;;;12.40;10.80;;;;;;;20.90;100.00;98709.50;5120872;27;20268;-79
2022/08/19 06:15:00;;;;;;;13.13;10.33;;;;;;;20.85;100.00;98712.72;5123428;27;20209;-79
2022/08/19 06:17:30;;;;;;;12.30;10.33;;;;;;;20.93;100.00;98717.22;5123758;27;20277;-79
2022/08/19 06:20:01;;;;;;;12.83;10.87;;;;;;;20.88;100.00;98715.06;5081914;28;20296;-80
2022/08/19 06:22:30;;;;;;;12.00;10.30;;;;;;;20.97;100.00;98719.38;5082276;28;20287;-80
2022/08/19 06:24:58;;;;;;;12.67;10.30;;;;;;;20.94;100.00;98714.38;5079659;28;20210;-79
2022/08/19 06:27:29;;;;;;;11.30;10.20;;;;;;;20.98;100.00;98715.69;5076816;28;20196;-80
2022/08/19 06:29:58;;;;;;;12.83;9.70;;;;;;;20.91;100.00;98714.69;5078705;28;20196;-80
2022/08/19 06:32:26;;;;;;;14.57;10.03;;;;;;;20.99;100.00;98716.53;5080893;28;20295;-80
2022/08/19 06:34:54;;;;;;;12.13;9.50;;;;;;;21.11;100.00;98731.25;5079068;28;20214;-79
2022/08/19 06:37:24;;;;;;;12.37;10.33;;;;;;;21.12;100.00;98735.63;5018025;28;20208;-79
2022/08/19 06:39:53;;;;;;;13.00;9.90;;;;;;;21.08;100.00;98737.84;5062746;28;20280;-79
2022/08/19 06:42:22;;;;;;;12.00;10.57;;;;;;;21.28;100.00;98746.38;5064305;28;20232;-79
2022/08/19 06:44:51;;;;;;;14.77;10.00;;;;;;;21.32;100.00;98749.53;5062571;28;20257;-79
2022/08/19 06:47:22;;;;;;;12.67;9.27;;;;;;;21.47;100.00;98752.34;5065922;28;20353;-80
2022/08/19 06:50:02;;;;;;;12.93;10.27;;;;;;;21.34;100.00;98752.91;5062857;28;20215;-80
2022/08/19 06:52:35;;;;;;;12.00;9.47;;;;;;;21.24;100.00;98757.66;5062135;28;20659;-79
2022/08/19 06:55:06;;;;;;;10.43;9.03;;;;;;;21.38;100.00;98754.22;5084949;27;20202;-79
2022/08/19 06:57:35;;;;;;;10.03;8.83;;;;;;;21.41;100.00;98751.16;5123599;27;20195;-80
2022/08/19 07:00:10;;;;;;;10.70;8.20;;;;;;;21.66;100.00;98749.19;5120509;27;20246;-80
2022/08/19 07:02:42;;;;;;;9.00;8.10;;;;;;;21.74;100.00;98749.13;5124703;27;20186;-79
2022/08/19 07:05:23;;;;;;;10.70;8.17;;;;;;;21.90;100.00;98751.69;5130922;27;20194;-80
2022/08/19 07:07:53;;;;;;;9.00;7.80;;;;;;;21.89;100.00;98758.09;5121100;27;20202;-80
2022/08/19 07:10:25;;;;;;;9.77;8.03;;;;;;;21.75;100.00;98756.19;5127498;27;20285;-79
2022/08/19 07:12:53;;;;;;;9.73;7.97;;;;;;;21.85;100.00;98759.50;5122153;27;20233;-80
2022/08/19 07:15:23;;;;;;;11.87;8.33;;;;;;;21.80;100.00;98756.47;5125078;27;20262;-80
2022/08/19 07:17:51;;;;;;;9.93;7.63;;;;;;;21.91;100.00;98757.94;5122960;27;20187;-80
2022/08/19 07:20:20;;;;;;;12.47;8.20;;;;;;;22.01;100.00;98763.94;5125283;27;20257;-79
2022/08/19 07:22:57;;;;;;;8.43;7.40;;;;;;;22.14;100.00;98758.78;5128582;27;20216;-79
2022/08/19 07:25:27;;;;;;;9.40;7.60;;;;;;;22.07;100.00;98755.13;5118315;27;20212;-80
2022/08/19 07:27:58;;;;;;;10.63;7.50;;;;;;;22.33;100.00;98756.59;5125330;27;20209;-80
2022/08/19 07:30:29;;;;;;;7.90;6.13;;;;;;;22.55;100.00;98756.53;5061648;28;20755;-80
2022/08/19 07:32:58;;;;;;;10.32;6.05;;;;;;;22.76;100.00;98754.94;5003155;28;20229;-80
2022/08/19 07:35:31;;;;;;;8.83;6.13;;;;;;;22.89;100.00;98752.50;5004563;28;20674;-80
2022/08/19 07:38:03;;;;;;;9.53;5.90;;;;;;;22.98;100.00;98755.94;5001276;28;20203;-79
2022/08/19 07:40:32;;;;;;;8.50;6.17;;;;;;;22.80;100.00;98753.56;5001044;28;20278;-80
2022/08/19 07:43:00;;;;;;;10.77;6.33;;;;;;;22.82;100.00;98748.81;5003848;28;20258;-80
2022/08/19 07:45:32;;;;;;;7.10;5.87;;;;;;;22.95;100.00;98753.59;5005431;28;20230;-80
2022/08/19 07:48:00;;;;;;;8.60;5.30;;;;;;;23.14;100.00;98761.13;5012397;28;20255;-80
2022/08/19 07:50:29;;;;;;;9.47;5.03;;;;;;;23.18;100.00;98748.91;5062248;28;20253;-80
2022/08/19 07:52:58;;;;;;;8.77;4.53;;;;;;;23.30;100.00;98742.00;5061960;28;20220;-79
2022/08/19 07:55:28;;;;;;;7.55;4.75;;;;;;;23.33;100.00;98740.78;5063612;28;20199;-80
2022/08/19 07:58:12;;;;;;;6.68;4.80;;;;;;;23.27;100.00;98741.53;5106562;27;20194;-80
2022/08/19 08:00:42;;;;;;;6.10;4.43;;;;;;;23.50;100.00;98742.22;5124316;27;20638;-79
2022/08/19 08:03:12;;;;;;;7.93;5.18;;;;;;;23.49;100.00;98753.22;5129603;27;20251;-81
2022/08/19 08:11:18;;;;;;;6.72;5.07;;;;;;;23.40;100.00;98756.03;5125931;27;20260;-80
2022/08/19 08:13:49;;;;;;;7.03;4.75;;;;;;;23.76;100.00;98749.00;5123549;27;20693;-80
2022/08/19 08:16:32;;;;;;;5.78;4.60;;;;;;;23.86;100.00;98752.22;5122366;27;20214;-80
2022/08/19 08:19:01;;;;;;;7.38;5.10;;;;;;;24.09;100.00;98752.81;5122952;27;20371;-80
2022/08/19 08:21:34;;;;;;;7.43;5.00;;;;;;;24.19;100.00;98758.75;5119246;27;20311;-80
2022/08/19 08:24:04;;;;;;;6.63;4.95;;;;;;;24.22;100.00;98760.22;5122615;27;20206;-80
2022/08/19 08:26:33;;;;;;;6.32;4.82;;;;;;;24.22;100.00;98768.34;5126110;27;20194;-80
2022/08/19 08:29:04;;;;;;;5.75;4.90;;;;;;;24.31;100.00;98760.91;5126226;27;20206;-80
2022/08/19 08:31:41;;;;;;;5.35;4.50;;;;;;;24.36;100.00;98753.09;5124258;27;20302;-80
2022/08/19 08:34:11;;;;;;;7.05;4.53;;;;;;;24.48;100.00;98751.50;5122424;27;20257;-80
2022/08/19 08:36:44;;;;;;;5.03;4.40;;;;;;;24.73;100.00;98766.28;5119965;27;20202;-80
2022/08/19 08:39:15;;;;;;;6.68;4.40;;;;;;;24.84;100.00;98771.13;5126715;27;20266;-80
2022/08/19 08:41:54;;;;;;;4.10;3.70;;;;;;;24.71;100.00;98768.34;5122501;27;20190;-80
2022/08/19 08:44:25;;;;;;;6.20;3.67;;;;;;;24.90;100.00;98768.66;5121062;27;20288;-80
2022/08/19 08:46:59;;;;;;;4.30;3.53;;;;;;;24.72;100.00;98761.06;5058618;28;20317;-80
2022/08/19 08:49:41;;;;;;;4.30;3.90;;;;;;;24.73;100.00;98769.00;5118152;27;20209;-80
2022/08/19 08:52:16;;;;;;;5.13;3.60;;;;;;;24.85;100.00;98774.69;5124803;27;20214;-80
2022/08/19 08:54:47;;;;;;;7.28;4.15;;;;;;;24.56;100.00;98756.78;5118850;28;20285;-80
2022/08/19 08:57:29;;;;;;;6.35;3.70;;;;;;;24.74;100.00;98764.41;5125144;28;20186;-80
2022/08/19 09:00:13;;;;;;;4.32;3.92;;;;;;;25.15;100.00;98767.16;5121414;28;20293;-80
2022/08/19 09:02:42;;;;;;;5.68;3.70;;;;;;;25.33;100.00;98770.16;5125100;28;20261;-80
2022/08/19 09:05:12;;;;;;;4.15;3.70;;;;;;;25.57;100.00;98776.09;5125071;28;20278;-80
2022/08/19 09:07:55;;;;;;;4.10;3.72;;;;;;;25.58;100.00;98775.06;5121259;28;20270;-80
2022/08/19 09:10:30;;;;;;;10.40;4.10;;;;;;;25.38;100.00;98775.84;5123904;28;20212;-81
2022/08/19 09:13:12;;;;;;;6.03;3.80;;;;;;;25.26;100.00;98771.16;5121193;28;20214;-80
2022/08/19 09:15:49;;;;;;;6.65;3.72;;;;;;;25.71;100.00;98772.41;5119765;28;20248;-80
2022/08/19 09:18:18;;;;;;;5.30;3.47;;;;;;;25.54;100.00;98766.47;5122977;28;20258;-80
2022/08/19 09:20:55;;;;;;;4.63;3.83;;;;;;;25.78;100.00;98758.88;5118339;28;20352;-80
2022/08/19 09:23:24;;;;;;;5.75;3.15;;;;;;;25.88;100.00;98757.44;5122996;28;20589;-80
2022/08/19 09:25:54;;;;;;;4.90;3.53;;;;;;;26.30;100.00;98752.66;5126776;28;20220;-80
2022/08/19 09:28:24;;;;;;;3.88;3.42;;;;;;;26.32;100.00;98752.44;5125870;28;20277;-80
2022/08/19 09:30:54;;;;;;;3.20;3.00;;;;;;;26.14;100.00;98745.75;5120646;28;20210;-80
2022/08/19 09:33:24;;;;;;;7.82;3.63;;;;;;;26.78;100.00;98750.53;5079212;28;20242;-80
2022/08/19 09:36:04;;;;;;;4.60;3.22;;;;;;;26.69;100.00;98743.66;5079053;28;20188;-80
2022/08/19 09:38:38;;;;;;;7.28;3.53;;;;;;;26.91;100.00;98733.34;5082382;28;20279;-80
2022/08/19 09:41:13;;;;;;;4.68;3.45;;;;;;;26.78;99.63;98742.38;5082966;28;20191;-81
2022/08/19 09:43:47;;;;;;;3.20;2.65;;;;;;;26.89;96.78;98746.31;5078537;28;20227;-81
2022/08/19 09:46:19;;;;;;;3.33;2.83;;;;;;;27.34;94.64;98738.25;5076101;28;20218;-80
2022/08/19 09:48:52;;;;;;;5.72;3.20;;;;;;;27.46;93.66;98731.06;5081682;28;20191;-79
2022/08/19 09:51:22;;;;;;;3.85;3.03;;;;;;;27.71;93.54;98733.91;5077445;28;20230;-80
2022/08/19 09:53:53;;;;;;;3.72;2.60;;;;;;;27.77;91.20;98729.44;5086884;28;20223;-80
2022/08/19 09:56:23;;;;;;;5.22;2.90;;;;;;;27.20;93.49;98732.03;5087246;28;20362;-80
2022/08/19 09:58:53;;;;;;;3.53;2.80;;;;;;;27.72;92.00;98735.56;5091357;28;20287;-80
2022/08/19 10:01:24;;;;;;;4.03;2.70;;;;;;;27.36;92.25;98736.97;5089397;28;20283;-80
2022/08/19 10:03:56;;;;;;;4.07;2.72;;;;;;;27.01;92.17;98739.16;5087038;28;20200;-81
2022/08/19 10:06:29;;;;;;;3.70;2.75;;;;;;;26.75;95.86;98734.66;5089317;28;20670;-80
2022/08/19 10:09:15;;;;;;;3.60;2.60;;;;;;;26.82;94.74;98742.78;5091422;28;20321;-80
2022/08/19 10:11:47;;;;;;;2.80;2.22;;;;;;;26.72;88.70;98735.06;5085901;28;20202;-80
2022/08/19 10:14:23;;;;;;;3.28;2.60;;;;;;;27.05;87.83;98728.75;5086618;28;20219;-79
2022/08/19 10:16:52;;;;;;;3.13;2.42;;;;;;;27.05;88.80;98721.44;5089887;28;20286;-80
2022/08/19 10:19:21;;;;;;;3.97;2.10;;;;;;;27.26;81.50;98720.28;5084511;28;20223;-80
2022/08/19 10:21:54;;;;;;;2.38;2.13;;;;;;;27.23;77.35;98725.34;5086434;28;20205;-80
2022/08/19 10:24:27;;;;;;;2.58;2.17;;;;;;;27.75;80.61;98718.78;5087560;28;20484;-81
2022/08/19 10:26:58;;;;;;;2.78;2.35;;;;;;;28.04;80.73;98713.78;5088537;28;20211;-81
2022/08/19 10:29:29;;;;;;;3.45;2.45;;;;;;;28.15;81.88;98711.16;5087154;28;20199;-81
2022/08/19 10:32:01;;;;;;;2.75;2.50;;;;;;;28.10;81.18;98712.91;5088706;28;20260;-81
2022/08/19 10:34:31;;;;;;;2.92;2.60;;;;;;;28.51;79.70;98706.88;5090017;28;20223;-81
2022/08/19 10:37:01;;;;;;;2.85;2.60;;;;;;;28.25;77.84;98718.81;5086390;28;20223;-81
2022/08/19 10:39:31;;;;;;;2.42;2.13;;;;;;;27.80;80.65;98712.69;5089007;28;20653;-80
2022/08/19 10:42:12;;;;;;;3.55;2.67;;;;;;;27.38;83.59;98724.00;5101096;27;20311;-81
2022/08/19 10:44:46;;;;;;;4.03;2.75;;;;;;;27.41;84.92;98720.03;5123363;27;20673;-81
2022/08/19 10:47:15;;;;;;;3.17;2.60;;;;;;;27.85;75.12;98715.59;5129146;27;20198;-81
2022/08/19 10:52:40;;;;;;;4.40;2.60;;;;;;;28.51;73.77;98715.06;5128647;27;20620;-81
2022/08/19 10:58:12;;;;;;;2.95;2.60;;;;;;;27.87;82.31;98711.56;5131309;27;20259;-81
2022/08/19 11:00:42;;;;;;;3.53;2.97;;;;;;;27.94;81.61;98700.66;5124997;27;20251;-81
2022/08/19 11:03:11;;;;;;;2.97;2.65;;;;;;;28.26;79.84;98703.31;5126883;27;20270;-81
2022/08/19 11:05:41;;;;;;;3.53;2.55;;;;;;;28.16;80.47;98695.63;5131514;27;20216;-81
2022/08/19 11:08:11;;;;;;;4.35;2.75;;;;;;;27.85;81.93;98697.34;5127506;27;20669;-81
2022/08/19 11:10:50;;;;;;;2.72;2.50;;;;;;;27.75;82.29;98694.28;5128142;27;20196;-81
2022/08/19 11:13:19;;;;;;;3.35;2.63;;;;;;;27.23;85.79;98695.44;5127345;27;20230;-81
2022/08/19 11:15:56;;;;;;;4.07;3.17;;;;;;;27.99;80.35;98697.25;5121190;27;20201;-81
2022/08/19 11:18:26;;;;;;;9.18;3.97;;;;;;;28.88;74.75;98690.56;5043253;28;20303;-81
2022/08/19 11:21:06;;;;;;;3.40;3.10;;;;;;;29.35;62.40;98689.78;5038751;28;20216;-81
2022/08/19 11:23:34;;;;;;;4.03;3.28;;;;;;;29.63;61.11;98691.94;5044495;28;20207;-81
2022/08/19 11:26:03;;;;;;;3.92;3.15;;;;;;;29.90;62.63;98681.41;5040795;28;20200;-81
2022/08/19 11:28:34;;;;;;;4.05;3.08;;;;;;;30.15;63.37;98667.59;5042721;28;20279;-81
2022/08/19 11:31:04;;;;;;;3.78;2.90;;;;;;;29.48;66.85;98664.22;4986542;28;20230;-81
2022/08/19 11:33:33;;;;;;;3.42;2.92;;;;;;;29.58;65.45;98667.22;4987596;28;20283;-81
2022/08/19 11:36:02;;;;;;;5.43;3.22;;;;;;;28.88;69.26;98663.28;4978590;28;20254;-81
2022/08/19 11:38:31;;;;;;;5.35;3.40;;;;;;;28.69;71.05;98659.75;4979484;28;20680;-80
2022/08/19 11:41:01;;;;;;;5.18;3.80;;;;;;;29.15;67.32;98656.47;4909226;29;20205;-80
2022/08/19 11:43:34;;;;;;;5.68;4.57;;;;;;;29.31;66.52;98653.09;4959633;28;20226;-80
2022/08/19 11:46:09;;;;;;;4.22;3.42;;;;;;;29.98;62.78;98642.00;4982795;28;20273;-80
2022/08/19 11:48:38;;;;;;;5.18;4.22;;;;;;;30.27;55.69;98653.91;4994132;28;20198;-81
2022/08/19 11:51:09;;;;;;;4.40;4.00;;;;;;;30.58;52.84;98641.78;5021154;28;20206;-81
2022/08/19 11:53:39;;;;;;;4.38;4.00;;;;;;;30.59;54.40;98634.41;5022521;28;20240;-81
2022/08/19 11:56:10;;;;;;;4.57;4.20;;;;;;;30.61;53.22;98638.56;5019572;28;20201;-81